AirNav   Air Wisconsin pilot careers
 
 931 users online  

58C Jana Airport
Edgerton, Wisconsin, USA

GOING TO EDGERTON?


FAA INFORMATION EFFECTIVE 23 MAY 2019

Location

FAA Identifier: 58C
Lat/Long: 42-52-22.0160N / 089-04-32.4050W
42-52.366933N / 089-04.540083W
42.8727822 / -89.0756681
(estimated)
Elevation: 842 ft. / 257 m (estimated)
Variation: 00W (1985)
From city: 3 miles N of EDGERTON, WI
Time zone: UTC -5 (UTC -6 during Standard Time)
Zip code: 53534

Airport Operations

Airport use: Open to the public
Activation date: 10/1947
Control tower: no
ARTCC: CHICAGO CENTER
FSS: GREEN BAY FLIGHT SERVICE STATION
NOTAMs facility: GRB (NOTAM-D service available)
Attendance: IREG
Wind indicator: yes
Segmented circle: no
Lights: FOR LIRL RY 18/36 CALL 608-884-3403/3521.

Airport Communications

CTAF: 122.9
WX AWOS-3 at JVL (15 nm S): PHONE 608-758-1723
WX ASOS at MSN (20 nm NW): PHONE 608-249-0615

Nearby radio navigation aids

VOR radial/distance  VOR name  Freq  Var
JVLr001/18.9JANESVILLE VOR/DME114.3003E
MSNr142/20.0MADISON VORTAC108.6003E
BAEr245/37.7BADGER VOR/DME116.4002E
RFDr007/39.2ROCKFORD VOR/DME110.8001E

 
NDB name  Hdg/Dist  Freq  Var  ID
LAKE LAWN298/23.740402WLVV .-.. ...- ...-
ROCK RIVER221/23.737101WRYV .-. -.-- ...-
JUNEAU207/37.234401WUNU ..- -. ..-

Airport Services

Fuel available: 100LL
Parking: tiedowns
Bottled oxygen: NONE
Bulk oxygen: NONE

Runway Information

Runway 18/36

Dimensions: 2305 x 135 ft. / 703 x 41 m
Surface: turf, in good condition
Runway edge lights: non-standard
NSTD LIRL WITH REFLECTORS; ORANGE REFLECTORS INDICATING LAST 1000 FT OF RY BOTH DIRECTIONS.
Runway edge markings: RWY 18 /36 MKD BY PAIRS OF RED METAL A-FRAMES; ENDS OF STWYS MKD WITH 3 RED METAL A-FRAMES ON CNTRLN.
RUNWAY 18  RUNWAY 36
Latitude: 42-52.550500N42-52.166833N
Longitude: 089-04.540000W089-04.540000W
Elevation: 842.0 ft.840.0 ft.
Traffic pattern: leftleft
Markings: nonenone
Runway end identifier lights: nono
Obstructions: 35 ft. tree, 420 ft. from runway, 20 ft. left of centerline, 12:1 slope to clear10 ft. brush, 110 ft. from runway, 80 ft. left of centerline, 11:1 slope to clear

Airport Ownership and Management from official FAA records

Ownership: Privately-owned
Owner: S. A. JANA REVOCABLE TRUST
703 RUSKIN STREET
MADISON, WI 53704
Phone 608-241-8140
Manager: DON BECKER
406 HIGHWAY STREET
EDGERTON, WI 53534
Phone 608-884-3403

Airport Operational Statistics

Aircraft based on the field: 14
Single engine airplanes: 13
Ultralights: 1
    
Aircraft operations: avg 77/week *
50% transient general aviation
50% local general aviation
<1% military
* for 12-month period ending 08 July 2016

Instrument Procedures

There are no published instrument procedures at 58C.

Some nearby airports with instrument procedures:

61C - Fort Atkinson Municipal Airport (13 nm NE)
87Y - Blackhawk Airfield (15 nm N)
KJVL - Southern Wisconsin Regional Airport (15 nm S)
KMSN - Dane County Regional Airport-Truax Field (20 nm NW)
44C - Beloit Airport (23 nm S)
 
Loc | Ops | Rwys | IFR | FBO | Links
Com | Nav | Svcs | Stats | Notes
Area around 58C (Jana Airport)
 
Road maps at: MapQuest Bing Google
 
Aerial photo
WARNING: Photo may not be current or correct
Aerial photo of 58C (Jana Airport)
Do you have a better or more recent aerial photo of Jana Airport that you would like to share? If so, please send us your photo.

 
Sectional chart

 
Airport distance calculator
Flying to Jana Airport? Find the distance to fly.

From to 58C

Sunrise and sunset
Times for 25-May-2019
 Local
(UTC-5)
 Zulu
(UTC)
Morning civil twilight04:5209:52
Sunrise05:2610:26
Sunset20:2101:21
Evening civil twilight20:5501:55

Current date and time
Zulu (UTC)  25-May-2019 22:34:01
Local (UTC-5)  25-May-2019 17:34:01
 
METAR
KJVL 
16nm S 
252145Z 24014KT 10SM SCT045 28/17 A2991
KMSN 
20nm NW 
252153Z 23008G17KT 190V270 10SM FEW055 26/14 A2988 RMK AO2 SLP113 T02610139
KRYV 
24nm NE 
252215Z AUTO 23014G19KT 10SM SCT050 27/17 A2988 RMK AO2 T02650167
KC29 
25nm NW 
252215Z AUTO 24014G17KT 10SM CLR 28/14 A2989 RMK AO1 T02790140
KEFT 
28nm SW 
252215Z AUTO 24017G20KT 10SM SCT047 27/15 A2993 RMK AO2 T02660150
TAF
KMSN 
20nm NW 
251731Z 2518/2618 24010G17KT P6SM SCT035 FM252300 27008KT P6SM SCT045 FM260300 VRB03KT P6SM FEW050 FM261200 VRB03KT P6SM BKN050 FM261500 09005KT P6SM SCT050
NOTAMs
Click for the latest NOTAMs
NOTAMs are issued by the DoD/FAA and will open in a separate window not controlled by AirNav.

 

 
 

Would you like to see your business listed on this page?

 If your business provides an interesting product or service to pilots, flight crews, aircraft, or users of the Jana Airport, you should consider listing it here.  To start the listing process, click on the button below
 
Add a business
 

Other Pages about Jana Airport

Page from the Wisconsin airport directory (PDF)
 
Update a link
 
Copyright © AirNav, LLC. All rights reserved. Privacy Policy  Contact